createdAt,value
2023-03-01T00:01:10.879Z,57.26
2023-03-01T00:03:44.902Z,57.79
2023-03-01T00:06:18.780Z,57.69
2023-03-01T00:08:52.804Z,57.85
2023-03-01T00:11:27.973Z,57.61
2023-03-01T00:14:06.136Z,57.61
2023-03-01T00:16:41.247Z,57.84
2023-03-01T00:19:17.401Z,57.92
2023-03-01T00:21:51.218Z,58.11
2023-03-01T00:24:24.604Z,57.81
2023-03-01T00:26:58.788Z,58.05
2023-03-01T00:29:32.979Z,57.88
2023-03-01T00:32:07.063Z,57.95
2023-03-01T00:34:40.684Z,58.18
2023-03-01T00:37:14.119Z,58.28
2023-03-01T00:39:47.970Z,58.06
2023-03-01T00:42:23.363Z,57.68
2023-03-01T00:44:56.881Z,58.08
2023-03-01T00:47:31.958Z,58.01
2023-03-01T00:50:05.743Z,58.30
2023-03-01T00:52:38.944Z,57.76
2023-03-01T00:55:14.253Z,57.28
2023-03-01T00:57:47.691Z,57.58
2023-03-01T01:00:22.961Z,57.71
2023-03-01T01:02:56.399Z,57.85
2023-03-01T01:05:29.889Z,57.67
2023-03-01T01:08:03.354Z,57.82
2023-03-01T01:10:38.320Z,58.00
2023-03-01T01:13:11.937Z,57.93
2023-03-01T01:15:45.740Z,57.78
2023-03-01T01:18:19.146Z,57.62
2023-03-01T01:20:52.548Z,57.66
2023-03-01T01:23:26.040Z,57.67
2023-03-01T01:25:59.670Z,57.77
2023-03-01T01:28:33.964Z,57.77
2023-03-01T01:31:08.323Z,57.71
2023-03-01T01:33:41.885Z,57.90
2023-03-01T01:36:15.728Z,57.97
2023-03-01T01:38:49.061Z,58.01
2023-03-01T01:41:23.810Z,57.99
2023-03-01T01:44:19.966Z,57.89
2023-03-01T01:46:57.433Z,58.06
2023-03-01T01:49:31.938Z,58.60
2023-03-01T01:52:09.641Z,58.59
2023-03-01T01:54:49.658Z,58.61
2023-03-01T01:57:26.205Z,58.79
2023-03-01T02:00:02.580Z,58.86
2023-03-01T02:02:38.994Z,58.98
2023-03-01T02:05:15.699Z,59.22
2023-03-01T02:07:50.006Z,59.29
2023-03-01T02:10:25.745Z,59.53
2023-03-01T02:13:00.302Z,59.66
2023-03-01T02:15:37.527Z,59.82
2023-03-01T02:18:12.633Z,59.91
2023-03-01T02:20:49.259Z,59.91
2023-03-01T02:23:22.678Z,59.94
2023-03-01T02:25:59.048Z,60.15
2023-03-01T02:28:36.336Z,60.17
2023-03-01T02:31:29.967Z,60.17
2023-03-01T02:34:05.641Z,60.27
2023-03-01T02:36:41.428Z,60.34
2023-03-01T02:39:19.128Z,60.43
2023-03-01T02:41:55.940Z,60.51
2023-03-01T02:44:31.565Z,60.57
2023-03-01T02:47:08.479Z,60.54
2023-03-01T02:49:41.906Z,60.61
2023-03-01T02:52:40.430Z,60.73
2023-03-01T02:55:16.495Z,60.84
2023-03-01T02:57:51.909Z,60.96
2023-03-01T03:00:28.756Z,61.05
2023-03-01T03:03:02.622Z,61.16
2023-03-01T03:05:36.132Z,61.25
2023-03-01T03:08:09.554Z,61.33
2023-03-01T03:10:44.837Z,61.38
2023-03-01T03:13:20.250Z,61.39
2023-03-01T03:15:53.638Z,61.48
2023-03-01T03:18:27.866Z,61.52
2023-03-01T03:21:03.363Z,61.56
2023-03-01T03:23:37.213Z,61.57
2023-03-01T03:26:12.318Z,61.68
2023-03-01T03:28:45.521Z,61.71
2023-03-01T03:31:19.043Z,61.78
2023-03-01T03:33:52.423Z,61.80
2023-03-01T03:36:27.292Z,61.87
2023-03-01T03:39:00.484Z,61.88
2023-03-01T03:41:35.393Z,61.96
2023-03-01T03:44:08.984Z,61.98
2023-03-01T03:46:42.587Z,62.02
2023-03-01T03:49:16.084Z,62.06
2023-03-01T03:51:49.738Z,62.10
2023-03-01T03:54:23.034Z,62.16
2023-03-01T03:56:56.428Z,62.21
2023-03-01T03:59:30.643Z,62.17
2023-03-01T04:02:04.128Z,62.19
2023-03-01T04:04:37.407Z,62.22
2023-03-01T04:07:11.017Z,62.26
2023-03-01T04:09:44.602Z,62.28
2023-03-01T04:12:20.164Z,62.33
2023-03-01T04:14:53.574Z,62.36
2023-03-01T04:17:27.058Z,62.40
2023-03-01T04:20:00.638Z,62.47
2023-03-01T04:22:35.427Z,62.49
2023-03-01T04:25:09.692Z,62.54
2023-03-01T04:27:43.912Z,62.56
2023-03-01T04:30:18.755Z,62.58
2023-03-01T04:32:52.000Z,62.65
2023-03-01T04:35:25.596Z,62.66
2023-03-01T04:37:59.149Z,62.67
2023-03-01T04:40:33.072Z,62.65
2023-03-01T04:43:06.980Z,62.68
2023-03-01T04:45:40.412Z,62.67
2023-03-01T04:48:13.970Z,62.71
2023-03-01T04:50:47.451Z,62.74
2023-03-01T04:53:20.583Z,62.73
2023-03-01T04:55:54.090Z,62.76
2023-03-01T04:58:28.835Z,62.81
2023-03-01T05:01:02.185Z,62.79
2023-03-01T05:03:35.477Z,62.83
2023-03-01T05:06:09.387Z,62.83
2023-03-01T05:08:43.701Z,62.81
2023-03-01T05:11:17.187Z,62.81
2023-03-01T05:13:53.125Z,62.71
2023-03-01T05:16:26.725Z,62.62
2023-03-01T05:19:00.297Z,62.48
2023-03-01T05:21:35.033Z,62.31
2023-03-01T05:24:12.108Z,62.02
2023-03-01T05:26:46.069Z,61.85
2023-03-01T05:29:20.340Z,61.67
2023-03-01T05:31:55.247Z,61.46
2023-03-01T05:34:30.036Z,61.28
2023-03-01T05:37:04.318Z,61.43
2023-03-01T05:39:39.980Z,61.36
2023-03-01T05:42:14.279Z,61.15
2023-03-01T05:44:47.567Z,61.03
2023-03-01T05:47:22.345Z,60.72
2023-03-01T05:49:56.050Z,60.43
2023-03-01T05:52:29.427Z,60.41
2023-03-01T05:55:02.997Z,60.44
2023-03-01T05:57:36.340Z,60.47
2023-03-01T06:00:15.345Z,60.48
2023-03-01T06:02:48.834Z,60.47
2023-03-01T06:05:23.430Z,60.39
2023-03-01T06:07:57.347Z,59.89
2023-03-01T06:10:31.299Z,59.59
2023-03-01T06:13:05.326Z,59.31
2023-03-01T06:15:39.886Z,58.98
2023-03-01T06:18:13.428Z,58.75
2023-03-01T06:20:46.804Z,58.79
2023-03-01T06:23:20.425Z,58.16
2023-03-01T06:25:53.985Z,58.19
2023-03-01T06:28:27.406Z,58.25
2023-03-01T06:31:00.781Z,58.00
2023-03-01T06:33:34.259Z,57.90
2023-03-01T06:36:10.594Z,57.61
2023-03-01T06:38:44.386Z,57.83
2023-03-01T06:41:17.947Z,56.76
2023-03-01T06:43:51.317Z,56.49
2023-03-01T06:46:24.899Z,56.34
2023-03-01T06:48:58.158Z,56.40
2023-03-01T06:51:34.209Z,56.10
2023-03-01T06:54:07.976Z,55.66
2023-03-01T06:56:41.417Z,54.45
2023-03-01T06:59:14.551Z,54.35
2023-03-01T07:01:48.147Z,54.09
2023-03-01T07:04:21.674Z,54.22
2023-03-01T07:06:56.316Z,53.68
2023-03-01T07:09:30.318Z,51.81
2023-03-01T07:12:03.741Z,50.58
2023-03-01T07:14:37.036Z,50.50
2023-03-01T07:17:10.627Z,50.60
2023-03-01T07:19:44.128Z,48.71
2023-03-01T07:22:17.238Z,47.43
2023-03-01T07:24:50.472Z,45.21
2023-03-01T07:27:23.931Z,43.88
2023-03-01T07:29:57.104Z,42.49
2023-03-01T07:32:30.491Z,42.20
2023-03-01T07:35:03.952Z,43.42
2023-03-01T07:43:02.551Z,45.08
2023-03-01T07:45:35.887Z,45.95
2023-03-01T07:48:09.932Z,45.22
2023-03-01T07:50:43.794Z,45.50
2023-03-01T07:53:17.414Z,43.66
2023-03-01T07:55:50.840Z,45.79
2023-03-01T07:58:24.155Z,46.56
2023-03-01T08:00:57.448Z,46.38
2023-03-01T08:03:30.938Z,46.20
2023-03-01T08:06:05.465Z,45.04
2023-03-01T08:08:39.864Z,44.38
2023-03-01T08:11:15.454Z,44.38
2023-03-01T08:13:51.834Z,44.43
2023-03-01T08:16:26.048Z,43.67
2023-03-01T08:19:02.001Z,42.16
2023-03-01T08:21:36.713Z,40.20
2023-03-01T08:24:13.322Z,41.00
2023-03-01T08:26:46.644Z,40.95
2023-03-01T08:29:20.064Z,37.64
2023-03-01T08:31:53.850Z,38.00
2023-03-01T08:34:27.499Z,38.36
2023-03-01T08:37:01.139Z,38.23
2023-03-01T08:39:34.948Z,38.25
2023-03-01T08:42:08.820Z,38.19
2023-03-01T08:44:42.206Z,37.97
2023-03-01T08:47:16.423Z,35.67
2023-03-01T08:49:51.254Z,36.76
2023-03-01T08:52:25.650Z,36.50
2023-03-01T08:54:59.096Z,35.13
2023-03-01T08:57:34.267Z,34.26
2023-03-01T09:00:10.546Z,34.49
2023-03-01T09:02:43.799Z,33.49
2023-03-01T09:05:20.206Z,34.72
2023-03-01T09:07:52.882Z,33.97
2023-03-01T09:10:26.291Z,34.62
2023-03-01T09:12:59.744Z,35.54
2023-03-01T09:15:34.602Z,35.09
2023-03-01T09:18:08.344Z,36.10
2023-03-01T09:20:42.283Z,37.04
2023-03-01T09:23:15.718Z,36.40
2023-03-01T09:25:49.134Z,34.44
2023-03-01T09:28:30.085Z,33.79
2023-03-01T09:31:03.036Z,33.48
2023-03-01T09:33:36.797Z,34.88
2023-03-01T09:36:14.305Z,35.52
2023-03-01T09:38:48.036Z,36.18
2023-03-01T09:41:41.998Z,36.75
2023-03-01T09:44:29.481Z,37.99
2023-03-01T09:47:04.426Z,37.40
2023-03-01T09:49:40.611Z,36.50
2023-03-01T09:52:17.514Z,35.17
2023-03-01T09:54:53.596Z,35.79
2023-03-01T09:57:31.794Z,36.57
2023-03-01T10:03:18.036Z,41.44
2023-03-01T10:05:57.645Z,36.30
2023-03-01T10:08:42.800Z,35.99
2023-03-01T10:11:25.496Z,33.90
2023-03-01T10:14:06.039Z,35.57
2023-03-01T10:16:45.152Z,37.99
2023-03-01T10:19:21.764Z,39.74
2023-03-01T10:21:55.988Z,41.48
2023-03-01T10:24:30.701Z,42.40
2023-03-01T10:27:07.932Z,41.55
2023-03-01T10:29:45.362Z,41.61
2023-03-01T10:32:19.785Z,41.09
2023-03-01T10:34:53.379Z,40.69
2023-03-01T10:37:28.539Z,41.29
2023-03-01T10:40:09.362Z,41.44
2023-03-01T10:42:50.460Z,38.93
2023-03-01T10:45:36.765Z,37.54
2023-03-01T10:48:16.239Z,35.29
2023-03-01T10:50:51.654Z,35.57
2023-03-01T10:53:30.366Z,33.72
2023-03-01T10:56:06.184Z,31.14
2023-03-01T10:58:41.090Z,34.68
2023-03-01T11:01:31.168Z,35.41
2023-03-01T11:04:15.540Z,37.41
2023-03-01T11:06:52.265Z,37.77
2023-03-01T11:09:28.457Z,38.63
2023-03-01T11:12:03.798Z,40.03
2023-03-01T11:14:42.012Z,40.16
2023-03-01T11:17:20.139Z,40.08
2023-03-01T11:20:07.554Z,39.99
2023-03-01T11:22:44.259Z,37.20
2023-03-01T11:25:19.574Z,35.94
2023-03-01T11:27:54.362Z,32.82
2023-03-01T11:30:31.087Z,31.60
2023-03-01T11:33:13.803Z,32.05
2023-03-01T11:35:50.726Z,34.87
2023-03-01T11:38:27.194Z,35.50
2023-03-01T11:41:04.850Z,34.33
2023-03-01T11:43:41.890Z,32.91
2023-03-01T11:46:58.162Z,34.47
2023-03-01T11:49:53.865Z,33.49
2023-03-01T11:52:33.847Z,32.85
2023-03-01T11:55:28.141Z,34.79
2023-03-01T11:58:12.959Z,35.79
2023-03-01T12:00:55.220Z,33.74
2023-03-01T12:03:33.969Z,35.28
2023-03-01T12:06:41.735Z,36.38
2023-03-01T12:09:32.776Z,37.11
2023-03-01T12:12:37.768Z,39.28
2023-03-01T12:15:25.423Z,40.80
2023-03-01T12:18:09.230Z,41.14
2023-03-01T12:20:46.080Z,41.31
2023-03-01T12:24:00.849Z,41.29
2023-03-01T12:26:37.058Z,41.45
2023-03-01T12:29:28.201Z,40.38
2023-03-01T12:32:30.803Z,40.91
2023-03-01T12:35:21.078Z,41.51
2023-03-01T12:37:59.898Z,42.37
2023-03-01T12:40:42.448Z,41.96
2023-03-01T12:43:26.912Z,42.62
2023-03-01T13:18:34.574Z,46.69
2023-03-01T13:21:08.669Z,47.04
2023-03-01T13:23:43.461Z,46.72
2023-03-01T13:26:19.127Z,46.79
2023-03-01T13:28:58.274Z,46.84
2023-03-01T13:32:10.275Z,46.78
2023-03-01T13:34:48.900Z,47.01
2023-03-01T13:37:41.424Z,47.18
2023-03-01T13:40:49.452Z,47.24
2023-03-01T13:43:34.355Z,47.58
2023-03-01T13:46:15.160Z,47.92
2023-03-01T13:48:52.374Z,47.79
2023-03-01T13:51:28.848Z,47.70
2023-03-01T13:54:02.544Z,47.43
2023-03-01T13:56:40.184Z,47.42
2023-03-01T13:59:20.910Z,47.61
2023-03-01T14:01:58.435Z,47.65
2023-03-01T14:04:35.892Z,47.48
2023-03-01T14:07:17.783Z,47.65
2023-03-01T14:09:53.435Z,47.82
2023-03-01T14:12:37.327Z,47.92
2023-03-01T14:15:14.460Z,47.99
2023-03-01T14:17:54.331Z,48.03
2023-03-01T14:20:29.752Z,48.14
2023-03-01T14:23:06.042Z,47.91
2023-03-01T14:25:40.956Z,48.08
2023-03-01T14:28:20.795Z,48.07
2023-03-01T14:30:55.652Z,48.18
2023-03-01T14:33:31.696Z,48.33
2023-03-01T14:36:08.050Z,48.50
2023-03-01T14:38:42.754Z,48.74
2023-03-01T14:41:19.050Z,49.06
2023-03-01T14:43:55.056Z,49.30
2023-03-01T14:46:31.632Z,49.73
2023-03-01T14:49:08.666Z,49.91
2023-03-01T14:51:44.562Z,50.18
2023-03-01T14:54:26.507Z,50.53
2023-03-01T14:57:02.180Z,50.52
2023-03-01T14:59:37.309Z,50.73
2023-03-01T15:02:18.380Z,50.86
2023-03-01T15:04:54.980Z,50.98
2023-03-01T15:07:31.641Z,51.16
2023-03-01T15:10:06.787Z,51.51
2023-03-01T15:12:42.319Z,51.61
2023-03-01T15:18:28.641Z,51.85
2023-03-01T15:21:11.718Z,52.06
2023-03-01T15:23:46.465Z,52.07
2023-03-01T15:26:28.527Z,52.20
2023-03-01T15:29:03.799Z,52.29
2023-03-01T15:31:40.182Z,52.37
2023-03-01T15:34:26.092Z,52.65
2023-03-01T15:37:01.693Z,52.81
2023-03-01T15:39:39.131Z,52.88
2023-03-01T15:42:14.474Z,52.91
2023-03-01T15:44:48.050Z,52.69
2023-03-01T15:47:30.459Z,52.71
2023-03-01T15:50:04.721Z,52.64
2023-03-01T15:52:42.494Z,52.73
2023-03-01T15:55:21.021Z,52.68
2023-03-01T15:58:02.774Z,52.65
2023-03-01T16:00:37.017Z,52.60
2023-03-01T16:03:14.780Z,52.63
2023-03-01T16:05:48.232Z,52.69
2023-03-01T16:08:22.079Z,52.86
2023-03-01T16:10:55.774Z,52.89
2023-03-01T16:13:29.535Z,52.82
2023-03-01T16:16:03.045Z,52.74
2023-03-01T16:18:36.615Z,52.50
2023-03-01T16:21:12.341Z,52.31
2023-03-01T16:23:47.151Z,52.09
2023-03-01T16:26:21.979Z,52.00
2023-03-01T16:28:58.744Z,51.96
2023-03-01T16:31:33.354Z,52.00
2023-03-01T16:34:07.437Z,52.09
2023-03-01T16:36:42.215Z,52.12
2023-03-01T16:39:15.749Z,52.28
2023-03-01T16:41:49.121Z,52.42
2023-03-01T16:44:22.843Z,52.63
2023-03-01T16:46:56.108Z,52.81
2023-03-01T16:49:29.607Z,52.95
2023-03-01T16:52:03.124Z,53.08
2023-03-01T16:54:36.704Z,53.15
2023-03-01T16:57:10.178Z,53.46
2023-03-01T16:59:44.116Z,53.63
2023-03-01T17:02:19.639Z,53.93
2023-03-01T17:04:56.886Z,54.06
2023-03-01T17:07:30.443Z,54.32
2023-03-01T17:10:04.796Z,54.30
2023-03-01T17:12:38.676Z,54.57
2023-03-01T17:15:13.734Z,54.61
2023-03-01T17:17:48.630Z,54.71
2023-03-01T17:20:22.043Z,54.64
2023-03-01T17:22:55.270Z,54.67
2023-03-01T17:25:28.805Z,54.75
2023-03-01T17:28:02.405Z,54.95
2023-03-01T17:30:36.106Z,54.83
2023-03-01T17:33:09.517Z,54.91
2023-03-01T17:35:42.951Z,54.99
2023-03-01T17:38:19.510Z,55.13
2023-03-01T17:40:52.910Z,55.41
2023-03-01T17:43:26.476Z,55.50
2023-03-01T17:46:00.194Z,55.65
2023-03-01T17:48:33.580Z,55.67
2023-03-01T17:51:12.223Z,55.76
2023-03-01T17:53:45.407Z,55.86
2023-03-01T17:56:18.757Z,56.02
2023-03-01T17:58:52.348Z,56.21
2023-03-01T18:01:25.896Z,56.40
2023-03-01T18:03:59.732Z,56.38
2023-03-01T18:06:33.365Z,56.43
2023-03-01T18:09:07.468Z,56.90
2023-03-01T18:11:42.170Z,56.83
2023-03-01T18:14:16.125Z,57.06
2023-03-01T18:16:51.093Z,57.21
2023-03-01T18:19:24.701Z,57.28
2023-03-01T18:21:58.165Z,57.37
2023-03-01T18:24:31.466Z,57.46
2023-03-01T18:27:04.993Z,57.63
2023-03-01T18:29:39.740Z,57.57
2023-03-01T18:32:13.198Z,57.47
2023-03-01T18:34:48.317Z,57.62
2023-03-01T18:37:21.814Z,57.86
2023-03-01T18:39:55.839Z,57.68
2023-03-01T18:42:29.430Z,57.74
2023-03-01T18:45:02.704Z,58.25
2023-03-01T18:47:36.269Z,58.15
2023-03-01T18:50:12.042Z,58.14
2023-03-01T18:52:46.468Z,58.07
2023-03-01T18:55:20.160Z,57.90
2023-03-01T18:57:54.374Z,57.83
2023-03-01T19:00:28.060Z,57.80
2023-03-01T19:03:02.838Z,57.78
2023-03-01T19:05:36.575Z,57.80
2023-03-01T19:10:59.235Z,57.97
2023-03-01T19:13:33.656Z,58.07
2023-03-01T19:16:10.051Z,57.93
2023-03-01T19:18:46.882Z,57.97
2023-03-01T19:21:25.323Z,58.16
2023-03-01T19:24:02.749Z,58.26
2023-03-01T19:26:42.030Z,58.38
2023-03-01T19:29:21.145Z,58.61
2023-03-01T19:31:56.763Z,58.85
2023-03-01T19:34:52.616Z,58.40
2023-03-01T19:37:26.190Z,59.01
2023-03-01T19:39:59.511Z,58.96
2023-03-01T19:42:34.565Z,59.15
2023-03-01T19:45:10.480Z,59.19
2023-03-01T19:47:45.603Z,59.37
2023-03-01T19:50:19.749Z,59.53
2023-03-01T19:52:53.042Z,59.46
2023-03-01T19:55:27.175Z,59.49
2023-03-01T19:58:01.012Z,59.40
2023-03-01T20:00:34.546Z,59.29
2023-03-01T20:03:08.329Z,59.42
2023-03-01T20:05:43.075Z,59.43
2023-03-01T20:08:16.483Z,59.40
2023-03-01T20:10:49.807Z,59.41
2023-03-01T20:13:23.298Z,59.68
2023-03-01T20:15:58.455Z,59.86
2023-03-01T20:18:32.442Z,60.04
2023-03-01T20:21:17.933Z,60.32
2023-03-01T20:23:42.065Z,60.59
2023-03-01T20:26:18.152Z,60.62
2023-03-01T20:28:53.550Z,60.86
2023-03-01T20:31:29.940Z,61.27
2023-03-01T20:34:04.995Z,61.45
2023-03-01T20:36:39.443Z,61.61
2023-03-01T20:39:13.078Z,61.96
2023-03-01T20:41:46.250Z,62.39
2023-03-01T20:44:19.643Z,62.71
2023-03-01T20:46:53.324Z,63.05
2023-03-01T20:49:26.827Z,63.28
2023-03-01T20:52:00.271Z,63.19
2023-03-01T20:54:33.844Z,63.61
2023-03-01T20:57:07.433Z,63.53
2023-03-01T20:59:40.955Z,63.68
2023-03-01T21:02:14.406Z,63.69
2023-03-01T21:04:47.783Z,63.76
2023-03-01T21:07:21.230Z,64.27
2023-03-01T21:09:56.045Z,64.60
2023-03-01T21:12:29.831Z,64.62
2023-03-01T21:15:05.382Z,64.67
2023-03-01T21:17:41.900Z,64.85
2023-03-01T21:20:19.291Z,65.00
2023-03-01T21:22:52.738Z,65.00
2023-03-01T21:25:29.842Z,65.16
2023-03-01T21:28:03.401Z,65.23
2023-03-01T21:30:40.038Z,65.22
2023-03-01T21:33:13.522Z,65.06
2023-03-01T21:35:47.024Z,65.09
2023-03-01T21:38:20.527Z,65.12
2023-03-01T21:40:54.049Z,65.25
2023-03-01T21:43:27.806Z,65.25
2023-03-01T21:46:05.700Z,65.44
2023-03-01T21:48:40.044Z,65.38
2023-03-01T21:51:16.122Z,65.53
2023-03-01T21:53:51.021Z,65.37
2023-03-01T21:56:26.610Z,65.42
2023-03-01T21:59:00.276Z,65.54
2023-03-01T22:01:33.791Z,65.68
2023-03-01T22:04:07.993Z,65.91
2023-03-01T22:06:42.899Z,66.05
2023-03-01T22:09:18.292Z,66.17
2023-03-01T22:11:54.085Z,66.37
2023-03-01T22:14:27.765Z,66.42
2023-03-01T22:17:01.479Z,66.58
2023-03-01T22:19:35.510Z,66.81
2023-03-01T22:22:08.952Z,66.75
2023-03-01T22:24:42.172Z,66.81
2023-03-01T22:27:15.487Z,67.07
2023-03-01T22:29:49.075Z,67.27
2023-03-01T22:32:22.813Z,67.26
2023-03-01T22:34:56.293Z,67.17
2023-03-01T22:37:29.695Z,67.00
2023-03-01T22:40:03.252Z,67.06
2023-03-01T22:42:36.700Z,67.19
2023-03-01T22:45:12.041Z,67.34
2023-03-01T22:47:45.595Z,67.37
2023-03-01T22:50:19.935Z,67.57
2023-03-01T22:52:53.304Z,67.86
2023-03-01T22:55:28.102Z,67.93
2023-03-01T22:58:01.497Z,67.96
2023-03-01T23:00:35.335Z,67.92
2023-03-01T23:03:08.887Z,68.12
2023-03-01T23:05:42.459Z,68.04
2023-03-01T23:08:15.864Z,68.10
2023-03-01T23:10:49.203Z,68.05
2023-03-01T23:13:22.753Z,67.82
2023-03-01T23:15:59.819Z,68.00
2023-03-01T23:18:33.352Z,67.78
2023-03-01T23:21:11.644Z,67.74
2023-03-01T23:23:46.569Z,67.71
2023-03-01T23:26:22.504Z,67.68
2023-03-01T23:28:56.441Z,67.82
2023-03-01T23:31:30.310Z,67.99
2023-03-01T23:34:04.222Z,68.27
2023-03-01T23:36:39.303Z,68.47
2023-03-01T23:39:13.475Z,68.43
2023-03-01T23:41:46.976Z,68.39
2023-03-01T23:44:22.702Z,68.25
2023-03-01T23:46:56.084Z,68.33
2023-03-01T23:49:29.479Z,68.55
2023-03-01T23:52:03.056Z,68.62
2023-03-01T23:54:37.013Z,68.81
2023-03-01T23:57:10.206Z,68.79
2023-03-01T23:59:43.775Z,68.67
